Decoded Metar for ULMM (MURMANSK in RUSSIA) (IATA:MMK) | Meteo·Mobile Aviation Weather
aviador You're here:

ULMM Decoded Metar

MURMANSK in RUSSIA
Report Time2018-10-17 06:00:00
UTC Time2018-10-17 06:23:49
Flight Rules vfr VFR
Wind200° at 2 kt
W.Decomp.*RWY 13: 1.1 kt HW 1.6 kt RCW
W.Rank200° ranks 18
Current wind is below 200° avg. (5.6)
Visibility9999 m
Phenomena:N/A
Clouds:N/A
Expected CloudBase > 400 ft AGL from Temp-Dew spread
CeilingNone
Temp-4°C (ISA -19)
Dew Point-5°C (93% RH)
AAT-7.3°C
QNH1014 hPa
Density Alt-2,110 ft
Elevation167 ft
Report Wrong Elevation
Raw Report
ULMM 170600Z 20001MPS CAVOK M04/M05 Q1014 R31/150060 NOSIG RMK
QFE753=

Extra information for ULMM:More info

Metar Taf Metar & Taf Last 4 Metars F.Rules Stats Wind Profile Meteogram Temp Stats Airport Information Weather charts Add Link Nearby VenuesMetar ALERT Operation Metar Decoded Social comments